sensor_id;sensor_type;location;lat;lon;timestamp;pressure;altitude;pressure_sealevel;temperature;humidity
44697;BME280;57264;47.480;19.354;2023-03-13T00:00:16;99373.06;;;2.67;51.38
44697;BME280;57264;47.480;19.354;2023-03-13T00:02:42;99376.34;;;2.77;51.45
44697;BME280;57264;47.480;19.354;2023-03-13T00:05:10;99370.38;;;2.76;51.00
44697;BME280;57264;47.480;19.354;2023-03-13T00:07:36;99362.59;;;2.76;51.52
44697;BME280;57264;47.480;19.354;2023-03-13T00:10:02;99359.00;;;2.77;51.58
44697;BME280;57264;47.480;19.354;2023-03-13T00:12:28;99361.72;;;2.68;51.79
44697;BME280;57264;47.480;19.354;2023-03-13T00:14:54;99369.44;;;2.60;52.09
44697;BME280;57264;47.480;19.354;2023-03-13T00:17:19;99371.22;;;2.59;52.76
44697;BME280;57264;47.480;19.354;2023-03-13T00:19:45;99361.88;;;2.66;53.14
44697;BME280;57264;47.480;19.354;2023-03-13T00:22:10;99370.47;;;2.67;52.80
44697;BME280;57264;47.480;19.354;2023-03-13T00:24:36;99366.47;;;2.72;52.91
44697;BME280;57264;47.480;19.354;2023-03-13T00:27:01;99364.81;;;2.71;52.92
44697;BME280;57264;47.480;19.354;2023-03-13T00:29:30;99367.41;;;2.71;52.89
44697;BME280;57264;47.480;19.354;2023-03-13T00:31:56;99365.00;;;2.78;53.30
44697;BME280;57264;47.480;19.354;2023-03-13T00:34:22;99377.59;;;2.73;53.20
44697;BME280;57264;47.480;19.354;2023-03-13T00:36:50;99366.28;;;2.74;53.61
44697;BME280;57264;47.480;19.354;2023-03-13T00:39:16;99365.41;;;2.65;53.65
44697;BME280;57264;47.480;19.354;2023-03-13T00:41:41;99361.50;;;2.61;53.65
44697;BME280;57264;47.480;19.354;2023-03-13T00:44:08;99357.38;;;2.51;54.38
44697;BME280;57264;47.480;19.354;2023-03-13T00:46:34;99355.41;;;2.45;54.30
44697;BME280;57264;47.480;19.354;2023-03-13T00:48:59;99356.56;;;2.50;54.99
44697;BME280;57264;47.480;19.354;2023-03-13T00:51:26;99349.94;;;2.48;55.04
44697;BME280;57264;47.480;19.354;2023-03-13T00:53:53;99352.66;;;2.46;55.26
44697;BME280;57264;47.480;19.354;2023-03-13T00:56:19;99344.38;;;2.43;55.64
44697;BME280;57264;47.480;19.354;2023-03-13T00:58:47;99346.84;;;2.26;56.31
44697;BME280;57264;47.480;19.354;2023-03-13T01:01:19;99351.81;;;2.20;56.19
44697;BME280;57264;47.480;19.354;2023-03-13T01:03:51;99366.84;;;2.16;56.74
44697;BME280;57264;47.480;19.354;2023-03-13T01:06:19;99356.19;;;2.19;57.05
44697;BME280;57264;47.480;19.354;2023-03-13T01:08:45;99351.66;;;2.21;56.37
44697;BME280;57264;47.480;19.354;2023-03-13T01:11:14;99341.16;;;2.23;56.98
44697;BME280;57264;47.480;19.354;2023-03-13T01:13:40;99351.06;;;2.27;56.51
44697;BME280;57264;47.480;19.354;2023-03-13T01:16:09;99339.88;;;2.27;56.82
44697;BME280;57264;47.480;19.354;2023-03-13T01:18:37;99329.41;;;2.28;57.63
44697;BME280;57264;47.480;19.354;2023-03-13T01:21:03;99329.91;;;2.32;57.74
44697;BME280;57264;47.480;19.354;2023-03-13T01:23:29;99327.72;;;2.45;57.61
44697;BME280;57264;47.480;19.354;2023-03-13T01:25:55;99316.63;;;2.53;57.19
44697;BME280;57264;47.480;19.354;2023-03-13T01:28:22;99317.94;;;2.57;57.73
44697;BME280;57264;47.480;19.354;2023-03-13T01:30:49;99314.16;;;2.51;57.74
44697;BME280;57264;47.480;19.354;2023-03-13T01:33:15;99319.78;;;2.47;58.25
44697;BME280;57264;47.480;19.354;2023-03-13T01:35:41;99316.69;;;2.43;58.26
44697;BME280;57264;47.480;19.354;2023-03-13T01:38:07;99314.25;;;2.42;58.42
44697;BME280;57264;47.480;19.354;2023-03-13T01:40:47;99317.16;;;2.39;59.09
44697;BME280;57264;47.480;19.354;2023-03-13T01:43:23;99311.91;;;2.30;59.68
44697;BME280;57264;47.480;19.354;2023-03-13T01:45:53;99314.88;;;2.35;59.37
44697;BME280;57264;47.480;19.354;2023-03-13T01:48:35;99311.00;;;2.40;59.55
44697;BME280;57264;47.480;19.354;2023-03-13T01:51:05;99320.69;;;2.38;59.91
44697;BME280;57264;47.480;19.354;2023-03-13T01:53:34;99322.13;;;2.58;59.41
44697;BME280;57264;47.480;19.354;2023-03-13T01:56:03;99325.91;;;2.63;59.84
44697;BME280;57264;47.480;19.354;2023-03-13T01:58:30;99317.66;;;2.68;59.91
44697;BME280;57264;47.480;19.354;2023-03-13T02:00:57;99309.72;;;2.69;59.99
44697;BME280;57264;47.480;19.354;2023-03-13T02:03:24;99302.31;;;2.74;60.09
44697;BME280;57264;47.480;19.354;2023-03-13T02:05:51;99305.22;;;2.71;60.39
44697;BME280;57264;47.480;19.354;2023-03-13T02:08:28;99299.22;;;2.71;60.88
44697;BME280;57264;47.480;19.354;2023-03-13T02:11:12;99301.44;;;2.66;61.46
44697;BME280;57264;47.480;19.354;2023-03-13T02:13:41;99303.44;;;2.72;60.91
44697;BME280;57264;47.480;19.354;2023-03-13T02:16:08;99310.41;;;2.71;61.45
44697;BME280;57264;47.480;19.354;2023-03-13T02:18:35;99302.44;;;2.73;61.85
44697;BME280;57264;47.480;19.354;2023-03-13T02:21:15;99315.41;;;2.73;61.54
44697;BME280;57264;47.480;19.354;2023-03-13T02:24:37;99316.53;;;2.70;61.47
44697;BME280;57264;47.480;19.354;2023-03-13T02:26:35;99304.09;;;2.74;62.10
44697;BME280;57264;47.480;19.354;2023-03-13T02:29:01;99306.19;;;2.70;62.09
44697;BME280;57264;47.480;19.354;2023-03-13T02:31:26;99300.53;;;2.75;62.14
44697;BME280;57264;47.480;19.354;2023-03-13T02:33:54;99293.88;;;2.72;62.26
44697;BME280;57264;47.480;19.354;2023-03-13T02:36:20;99291.91;;;2.66;62.49
44697;BME280;57264;47.480;19.354;2023-03-13T02:38:52;99294.31;;;2.60;62.18
44697;BME280;57264;47.480;19.354;2023-03-13T02:41:20;99303.69;;;2.61;62.99
44697;BME280;57264;47.480;19.354;2023-03-13T02:43:47;99305.25;;;2.54;62.93
44697;BME280;57264;47.480;19.354;2023-03-13T02:46:18;99302.03;;;2.52;63.17
44697;BME280;57264;47.480;19.354;2023-03-13T02:48:47;99302.66;;;2.54;63.21
44697;BME280;57264;47.480;19.354;2023-03-13T02:51:26;99298.34;;;2.62;62.45
44697;BME280;57264;47.480;19.354;2023-03-13T02:54:00;99294.63;;;2.57;62.84
44697;BME280;57264;47.480;19.354;2023-03-13T02:56:29;99289.75;;;2.62;63.18
44697;BME280;57264;47.480;19.354;2023-03-13T02:58:56;99296.56;;;2.63;62.81
44697;BME280;57264;47.480;19.354;2023-03-13T03:01:21;99294.94;;;2.62;63.35
44697;BME280;57264;47.480;19.354;2023-03-13T03:03:47;99292.22;;;2.63;62.71
44697;BME280;57264;47.480;19.354;2023-03-13T03:06:13;99297.50;;;2.54;62.67
44697;BME280;57264;47.480;19.354;2023-03-13T03:08:39;99304.31;;;2.11;63.94
44697;BME280;57264;47.480;19.354;2023-03-13T03:11:06;99311.34;;;2.01;64.46
44697;BME280;57264;47.480;19.354;2023-03-13T03:13:32;99316.19;;;1.96;64.49
44697;BME280;57264;47.480;19.354;2023-03-13T03:15:58;99317.28;;;1.94;nan
44697;BME280;57264;47.480;19.354;2023-03-13T03:18:23;99317.44;;;1.92;65.69
44697;BME280;57264;47.480;19.354;2023-03-13T03:20:49;99312.59;;;1.97;65.18
44697;BME280;57264;47.480;19.354;2023-03-13T03:23:14;99320.09;;;2.00;65.14
44697;BME280;57264;47.480;19.354;2023-03-13T03:25:40;99327.13;;;2.08;65.03
44697;BME280;57264;47.480;19.354;2023-03-13T03:28:05;99325.47;;;2.07;64.81
44697;BME280;57264;47.480;19.354;2023-03-13T03:30:31;99322.44;;;2.11;64.55
44697;BME280;57264;47.480;19.354;2023-03-13T03:32:57;99321.94;;;2.08;64.36
44697;BME280;57264;47.480;19.354;2023-03-13T03:35:22;99323.03;;;2.05;64.34
44697;BME280;57264;47.480;19.354;2023-03-13T03:37:48;99316.31;;;2.12;64.50
44697;BME280;57264;47.480;19.354;2023-03-13T03:40:14;99317.22;;;2.03;64.60
44697;BME280;57264;47.480;19.354;2023-03-13T03:42:39;99309.75;;;2.00;64.58
44697;BME280;57264;47.480;19.354;2023-03-13T03:45:05;99314.16;;;1.90;65.26
44697;BME280;57264;47.480;19.354;2023-03-13T03:47:30;99314.25;;;1.80;65.86
44697;BME280;57264;47.480;19.354;2023-03-13T03:49:56;99306.25;;;1.74;65.85
44697;BME280;57264;47.480;19.354;2023-03-13T03:52:21;99307.38;;;1.71;66.22
44697;BME280;57264;47.480;19.354;2023-03-13T03:54:47;99307.69;;;1.68;66.30
44697;BME280;57264;47.480;19.354;2023-03-13T03:57:12;99310.78;;;1.72;66.51
44697;BME280;57264;47.480;19.354;2023-03-13T03:59:38;99309.81;;;1.73;66.67
44697;BME280;57264;47.480;19.354;2023-03-13T04:02:03;99303.28;;;1.69;66.64
44697;BME280;57264;47.480;19.354;2023-03-13T04:04:29;99311.66;;;1.63;67.43
44697;BME280;57264;47.480;19.354;2023-03-13T04:06:55;99322.88;;;1.54;67.69
44697;BME280;57264;47.480;19.354;2023-03-13T04:09:20;99334.25;;;1.43;68.08
44697;BME280;57264;47.480;19.354;2023-03-13T04:11:46;99336.00;;;1.42;68.00
44697;BME280;57264;47.480;19.354;2023-03-13T04:14:11;99334.53;;;1.40;67.95
44697;BME280;57264;47.480;19.354;2023-03-13T04:16:37;99337.91;;;1.40;67.79
44697;BME280;57264;47.480;19.354;2023-03-13T04:19:02;99334.69;;;1.38;68.32
44697;BME280;57264;47.480;19.354;2023-03-13T04:21:28;99343.69;;;1.34;68.43
44697;BME280;57264;47.480;19.354;2023-03-13T04:23:53;99339.75;;;1.30;68.62
44697;BME280;57264;47.480;19.354;2023-03-13T04:26:19;99349.44;;;1.28;68.20
44697;BME280;57264;47.480;19.354;2023-03-13T04:28:44;99358.97;;;1.28;68.57
44697;BME280;57264;47.480;19.354;2023-03-13T04:31:10;99365.84;;;1.37;68.40
44697;BME280;57264;47.480;19.354;2023-03-13T04:33:35;99368.09;;;1.50;67.97
44697;BME280;57264;47.480;19.354;2023-03-13T04:36:01;99374.69;;;1.62;67.83
44697;BME280;57264;47.480;19.354;2023-03-13T04:38:27;99372.19;;;1.70;66.99
44697;BME280;57264;47.480;19.354;2023-03-13T04:40:52;99369.88;;;1.76;66.75
44697;BME280;57264;47.480;19.354;2023-03-13T04:43:18;99367.34;;;1.84;66.46
44697;BME280;57264;47.480;19.354;2023-03-13T04:45:43;99367.28;;;1.94;66.49
44697;BME280;57264;47.480;19.354;2023-03-13T04:48:10;99369.81;;;2.04;66.20
44697;BME280;57264;47.480;19.354;2023-03-13T04:50:36;99362.38;;;2.09;66.17
44697;BME280;57264;47.480;19.354;2023-03-13T04:53:01;99363.13;;;2.19;65.57
44697;BME280;57264;47.480;19.354;2023-03-13T04:55:27;99355.56;;;2.25;65.76
44697;BME280;57264;47.480;19.354;2023-03-13T04:57:53;99352.22;;;2.33;65.25
44697;BME280;57264;47.480;19.354;2023-03-13T05:00:18;99354.09;;;2.41;65.41
44697;BME280;57264;47.480;19.354;2023-03-13T05:02:44;99358.50;;;2.48;64.86
44697;BME280;57264;47.480;19.354;2023-03-13T05:05:09;99361.38;;;2.45;65.03
44697;BME280;57264;47.480;19.354;2023-03-13T05:07:35;99369.38;;;2.52;64.65
44697;BME280;57264;47.480;19.354;2023-03-13T05:10:00;99365.22;;;2.59;64.31
44697;BME280;57264;47.480;19.354;2023-03-13T05:12:26;99368.13;;;2.56;64.88
44697;BME280;57264;47.480;19.354;2023-03-13T05:14:51;99366.19;;;2.58;64.54
44697;BME280;57264;47.480;19.354;2023-03-13T05:17:17;99376.22;;;2.61;64.25
44697;BME280;57264;47.480;19.354;2023-03-13T05:19:43;99393.78;;;2.67;64.44
44697;BME280;57264;47.480;19.354;2023-03-13T05:22:08;99391.56;;;2.72;64.45
44697;BME280;57264;47.480;19.354;2023-03-13T05:24:34;99405.16;;;2.74;64.07
44697;BME280;57264;47.480;19.354;2023-03-13T05:26:59;99411.97;;;2.75;64.10
44697;BME280;57264;47.480;19.354;2023-03-13T05:29:27;99411.03;;;2.76;63.74
44697;BME280;57264;47.480;19.354;2023-03-13T05:31:52;99408.78;;;2.81;63.14
44697;BME280;57264;47.480;19.354;2023-03-13T05:34:18;99401.88;;;2.90;63.28
44697;BME280;57264;47.480;19.354;2023-03-13T05:36:43;99403.94;;;2.86;63.29
44697;BME280;57264;47.480;19.354;2023-03-13T05:39:09;99402.38;;;2.93;63.49
44697;BME280;57264;47.480;19.354;2023-03-13T05:41:34;99393.72;;;3.10;62.83
44697;BME280;57264;47.480;19.354;2023-03-13T05:44:00;99398.44;;;2.89;63.43
44697;BME280;57264;47.480;19.354;2023-03-13T05:46:26;99402.31;;;2.85;63.10
44697;BME280;57264;47.480;19.354;2023-03-13T05:48:51;99397.75;;;2.79;63.94
44697;BME280;57264;47.480;19.354;2023-03-13T05:51:17;99391.81;;;2.87;63.53
44697;BME280;57264;47.480;19.354;2023-03-13T05:53:43;99388.56;;;2.85;63.83
44697;BME280;57264;47.480;19.354;2023-03-13T05:56:09;99393.13;;;2.91;63.32
44697;BME280;57264;47.480;19.354;2023-03-13T05:58:35;99392.53;;;2.97;63.71
44697;BME280;57264;47.480;19.354;2023-03-13T06:01:09;99386.22;;;2.99;63.50
44697;BME280;57264;47.480;19.354;2023-03-13T06:03:35;99398.22;;;3.00;63.53
44697;BME280;57264;47.480;19.354;2023-03-13T06:06:01;99395.41;;;2.94;63.55
44697;BME280;57264;47.480;19.354;2023-03-13T06:08:27;99390.28;;;3.02;63.64
44697;BME280;57264;47.480;19.354;2023-03-13T06:10:53;99388.44;;;2.94;63.81
44697;BME280;57264;47.480;19.354;2023-03-13T06:13:18;99390.63;;;3.07;63.57
44697;BME280;57264;47.480;19.354;2023-03-13T06:15:57;99387.00;;;3.25;62.63
44697;BME280;57264;47.480;19.354;2023-03-13T06:18:23;99387.00;;;3.25;62.16
44697;BME280;57264;47.480;19.354;2023-03-13T06:20:49;99389.59;;;3.25;62.38
44697;BME280;57264;47.480;19.354;2023-03-13T06:23:15;99383.31;;;3.36;62.69
44697;BME280;57264;47.480;19.354;2023-03-13T06:25:41;99389.03;;;3.48;61.82
44697;BME280;57264;47.480;19.354;2023-03-13T06:28:06;99385.25;;;3.76;60.90
44697;BME280;57264;47.480;19.354;2023-03-13T06:30:32;99386.41;;;3.90;61.10
44697;BME280;57264;47.480;19.354;2023-03-13T06:32:58;99389.50;;;4.01;60.06
44697;BME280;57264;47.480;19.354;2023-03-13T06:35:23;99381.09;;;4.15;59.69
44697;BME280;57264;47.480;19.354;2023-03-13T06:37:49;99388.56;;;4.27;59.09
44697;BME280;57264;47.480;19.354;2023-03-13T06:40:15;99379.81;;;4.28;58.38
44697;BME280;57264;47.480;19.354;2023-03-13T06:42:49;99389.22;;;4.20;58.40
44697;BME280;57264;47.480;19.354;2023-03-13T06:45:15;99393.75;;;4.18;58.67
44697;BME280;57264;47.480;19.354;2023-03-13T06:47:40;99395.88;;;4.47;58.61
44697;BME280;57264;47.480;19.354;2023-03-13T06:50:06;99385.28;;;4.97;57.15
44697;BME280;57264;47.480;19.354;2023-03-13T06:52:32;99391.75;;;5.09;55.95
44697;BME280;57264;47.480;19.354;2023-03-13T06:54:57;99386.56;;;5.01;57.10
44697;BME280;57264;47.480;19.354;2023-03-13T06:57:23;99387.09;;;5.44;54.79
44697;BME280;57264;47.480;19.354;2023-03-13T06:59:48;99381.47;;;5.63;55.10
44697;BME280;57264;47.480;19.354;2023-03-13T07:02:14;99388.22;;;5.80;54.55
44697;BME280;57264;47.480;19.354;2023-03-13T07:04:40;99391.78;;;5.79;53.20
44697;BME280;57264;47.480;19.354;2023-03-13T07:07:06;99389.94;;;6.19;52.15
44697;BME280;57264;47.480;19.354;2023-03-13T07:09:31;99385.75;;;6.55;52.28
44697;BME280;57264;47.480;19.354;2023-03-13T07:11:57;99386.22;;;6.58;51.03
44697;BME280;57264;47.480;19.354;2023-03-13T07:14:24;99381.06;;;6.73;50.31
44697;BME280;57264;47.480;19.354;2023-03-13T07:16:49;99380.41;;;6.71;49.71
44697;BME280;57264;47.480;19.354;2023-03-13T07:19:15;99377.50;;;6.66;50.22
44697;BME280;57264;47.480;19.354;2023-03-13T07:21:40;99381.88;;;6.51;51.01
44697;BME280;57264;47.480;19.354;2023-03-13T07:24:06;99384.91;;;6.40;49.92
44697;BME280;57264;47.480;19.354;2023-03-13T07:26:32;99385.03;;;6.24;51.44
44697;BME280;57264;47.480;19.354;2023-03-13T07:28:58;99379.94;;;6.07;51.92
44697;BME280;57264;47.480;19.354;2023-03-13T07:31:24;99373.16;;;6.44;52.00
44697;BME280;57264;47.480;19.354;2023-03-13T07:33:50;99369.75;;;6.21;51.05
44697;BME280;57264;47.480;19.354;2023-03-13T07:36:21;99362.56;;;6.23;51.89
44697;BME280;57264;47.480;19.354;2023-03-13T07:38:47;99364.25;;;6.16;51.35
44697;BME280;57264;47.480;19.354;2023-03-13T07:41:13;99366.09;;;6.30;52.27
44697;BME280;57264;47.480;19.354;2023-03-13T07:43:39;99354.81;;;6.52;50.87
44697;BME280;57264;47.480;19.354;2023-03-13T07:46:06;99365.03;;;6.62;50.38
44697;BME280;57264;47.480;19.354;2023-03-13T07:48:34;99357.91;;;6.70;50.14
44697;BME280;57264;47.480;19.354;2023-03-13T07:51:01;99352.44;;;6.80;50.49
44697;BME280;57264;47.480;19.354;2023-03-13T07:53:27;99350.56;;;6.88;49.91
44697;BME280;57264;47.480;19.354;2023-03-13T07:56:10;99347.88;;;6.96;48.85
44697;BME280;57264;47.480;19.354;2023-03-13T07:58:38;99345.25;;;6.96;49.50
44697;BME280;57264;47.480;19.354;2023-03-13T08:01:08;99344.16;;;6.91;49.71
44697;BME280;57264;47.480;19.354;2023-03-13T08:03:34;99340.47;;;7.15;50.22
44697;BME280;57264;47.480;19.354;2023-03-13T08:06:02;99343.38;;;7.20;49.62
44697;BME280;57264;47.480;19.354;2023-03-13T08:08:28;99326.78;;;7.42;49.84
44697;BME280;57264;47.480;19.354;2023-03-13T08:11:09;99329.19;;;7.58;48.62
44697;BME280;57264;47.480;19.354;2023-03-13T08:13:35;99327.28;;;7.52;48.00
44697;BME280;57264;47.480;19.354;2023-03-13T08:16:03;99318.38;;;7.61;48.25
44697;BME280;57264;47.480;19.354;2023-03-13T08:18:29;99312.66;;;7.72;48.34
44697;BME280;57264;47.480;19.354;2023-03-13T08:21:00;99310.41;;;7.90;48.14
44697;BME280;57264;47.480;19.354;2023-03-13T08:23:27;99310.09;;;8.00;48.45
44697;BME280;57264;47.480;19.354;2023-03-13T08:25:52;99301.03;;;8.17;48.84
44697;BME280;57264;47.480;19.354;2023-03-13T08:28:18;99307.88;;;8.18;47.75
44697;BME280;57264;47.480;19.354;2023-03-13T08:30:43;99307.28;;;8.23;46.24
44697;BME280;57264;47.480;19.354;2023-03-13T08:33:09;99298.72;;;8.29;45.52
44697;BME280;57264;47.480;19.354;2023-03-13T08:35:35;99305.44;;;8.38;46.03
44697;BME280;57264;47.480;19.354;2023-03-13T08:38:01;99305.91;;;8.48;45.38
44697;BME280;57264;47.480;19.354;2023-03-13T08:40:27;99302.41;;;8.62;44.39
44697;BME280;57264;47.480;19.354;2023-03-13T08:42:53;99297.03;;;8.70;44.64
44697;BME280;57264;47.480;19.354;2023-03-13T08:45:18;99299.84;;;8.75;44.32
44697;BME280;57264;47.480;19.354;2023-03-13T08:47:44;99295.84;;;8.79;43.90
44697;BME280;57264;47.480;19.354;2023-03-13T08:50:10;99291.69;;;8.91;44.65
44697;BME280;57264;47.480;19.354;2023-03-13T08:52:36;99294.94;;;8.93;42.62
44697;BME280;57264;47.480;19.354;2023-03-13T08:55:01;99282.72;;;9.07;43.33
44697;BME280;57264;47.480;19.354;2023-03-13T08:57:27;99290.34;;;9.02;42.01
44697;BME280;57264;47.480;19.354;2023-03-13T08:59:52;99286.97;;;9.15;41.72
44697;BME280;57264;47.480;19.354;2023-03-13T09:02:18;99280.97;;;9.21;42.54
44697;BME280;57264;47.480;19.354;2023-03-13T09:04:46;99275.16;;;9.25;42.66
44697;BME280;57264;47.480;19.354;2023-03-13T09:07:15;99275.94;;;9.26;40.32
44697;BME280;57264;47.480;19.354;2023-03-13T09:09:41;99276.59;;;9.34;41.23
44697;BME280;57264;47.480;19.354;2023-03-13T09:12:07;99275.78;;;9.34;39.60
44697;BME280;57264;47.480;19.354;2023-03-13T09:14:33;99284.88;;;9.38;40.02
44697;BME280;57264;47.480;19.354;2023-03-13T09:16:58;99284.88;;;9.51;40.17
44697;BME280;57264;47.480;19.354;2023-03-13T09:19:24;99286.91;;;9.56;40.05
44697;BME280;57264;47.480;19.354;2023-03-13T09:21:50;99286.16;;;9.75;39.81
44697;BME280;57264;47.480;19.354;2023-03-13T09:24:15;99278.91;;;9.83;39.05
44697;BME280;57264;47.480;19.354;2023-03-13T09:26:41;99278.94;;;9.97;40.03
44697;BME280;57264;47.480;19.354;2023-03-13T09:29:07;99269.28;;;10.17;39.70
44697;BME280;57264;47.480;19.354;2023-03-13T09:31:33;99261.22;;;10.25;39.84
44697;BME280;57264;47.480;19.354;2023-03-13T09:33:59;99260.81;;;10.21;38.41
44697;BME280;57264;47.480;19.354;2023-03-13T09:36:25;99259.97;;;10.01;37.75
44697;BME280;57264;47.480;19.354;2023-03-13T09:38:53;99245.09;;;10.15;39.45
44697;BME280;57264;47.480;19.354;2023-03-13T09:41:23;99245.06;;;10.41;39.02
44697;BME280;57264;47.480;19.354;2023-03-13T09:43:59;99241.81;;;10.52;37.28
44697;BME280;57264;47.480;19.354;2023-03-13T09:49:36;99234.34;;;10.62;36.88
44697;BME280;57264;47.480;19.354;2023-03-13T09:52:22;99235.09;;;10.76;37.53
44697;BME280;57264;47.480;19.354;2023-03-13T09:57:23;99227.22;;;10.76;37.16
44697;BME280;57264;47.480;19.354;2023-03-13T09:59:59;99233.81;;;10.92;38.07
44697;BME280;57264;47.480;19.354;2023-03-13T10:02:33;99229.63;;;10.84;35.63
44697;BME280;57264;47.480;19.354;2023-03-13T10:05:12;99236.44;;;10.92;36.73
44697;BME280;57264;47.480;19.354;2023-03-13T10:07:39;99233.84;;;10.85;36.17
44697;BME280;57264;47.480;19.354;2023-03-13T10:10:20;99234.28;;;10.75;37.16
44697;BME280;57264;47.480;19.354;2023-03-13T10:12:56;99228.63;;;10.78;37.23
44697;BME280;57264;47.480;19.354;2023-03-13T10:15:54;99220.53;;;10.80;37.90
44697;BME280;57264;47.480;19.354;2023-03-13T10:18:22;99212.22;;;10.90;37.43
44697;BME280;57264;47.480;19.354;2023-03-13T10:21:00;99205.94;;;10.97;37.73
44697;BME280;57264;47.480;19.354;2023-03-13T10:23:38;99204.69;;;11.06;37.65
44697;BME280;57264;47.480;19.354;2023-03-13T10:26:05;99201.81;;;11.14;36.75
44697;BME280;57264;47.480;19.354;2023-03-13T10:28:34;99208.53;;;11.04;35.49
44697;BME280;57264;47.480;19.354;2023-03-13T10:31:13;99194.56;;;11.10;35.91
44697;BME280;57264;47.480;19.354;2023-03-13T10:33:41;99201.78;;;11.21;35.99
44697;BME280;57264;47.480;19.354;2023-03-13T10:36:12;99196.34;;;11.16;36.06
44697;BME280;57264;47.480;19.354;2023-03-13T10:38:53;99194.09;;;11.26;37.15
44697;BME280;57264;47.480;19.354;2023-03-13T10:41:28;99199.50;;;11.31;37.14
44697;BME280;57264;47.480;19.354;2023-03-13T10:43:59;99197.03;;;11.43;36.34
44697;BME280;57264;47.480;19.354;2023-03-13T10:46:30;99195.09;;;11.56;36.24
44697;BME280;57264;47.480;19.354;2023-03-13T10:49:00;99193.19;;;11.70;36.29
44697;BME280;57264;47.480;19.354;2023-03-13T10:51:45;99199.50;;;11.94;35.72
44697;BME280;57264;47.480;19.354;2023-03-13T10:54:36;99197.94;;;11.86;35.80
44697;BME280;57264;47.480;19.354;2023-03-13T10:59:50;99182.06;;;11.75;35.77
44697;BME280;57264;47.480;19.354;2023-03-13T11:02:33;99179.84;;;11.71;34.47
44697;BME280;57264;47.480;19.354;2023-03-13T11:05:00;99175.19;;;11.98;36.30
44697;BME280;57264;47.480;19.354;2023-03-13T11:07:34;99163.38;;;12.07;35.05
44697;BME280;57264;47.480;19.354;2023-03-13T11:12:33;99160.84;;;12.37;35.87
44697;BME280;57264;47.480;19.354;2023-03-13T11:15:00;99151.41;;;12.30;34.66
44697;BME280;57264;47.480;19.354;2023-03-13T11:20:07;99150.66;;;12.41;35.41
44697;BME280;57264;47.480;19.354;2023-03-13T11:22:49;99146.22;;;12.41;35.42
44697;BME280;57264;47.480;19.354;2023-03-13T11:25:22;99145.97;;;12.25;34.68
44697;BME280;57264;47.480;19.354;2023-03-13T11:28:01;99141.25;;;12.33;35.36
44697;BME280;57264;47.480;19.354;2023-03-13T11:30:45;99145.78;;;12.62;35.72
44697;BME280;57264;47.480;19.354;2023-03-13T11:33:27;99148.25;;;12.76;35.78
44697;BME280;57264;47.480;19.354;2023-03-13T11:38:41;99135.31;;;13.04;36.59
44697;BME280;57264;47.480;19.354;2023-03-13T11:44:28;99122.31;;;12.91;35.45
44697;BME280;57264;47.480;19.354;2023-03-13T11:49:54;99105.72;;;12.90;35.36
44697;BME280;57264;47.480;19.354;2023-03-13T12:03:30;99101.03;;;13.04;35.76
44697;BME280;57264;47.480;19.354;2023-03-13T12:06:01;99087.59;;;13.12;36.31
44697;BME280;57264;47.480;19.354;2023-03-13T12:08:35;99082.38;;;13.24;35.89
44697;BME280;57264;47.480;19.354;2023-03-13T12:11:23;99068.41;;;13.46;36.47
44697;BME280;57264;47.480;19.354;2023-03-13T12:14:00;99072.66;;;13.47;35.20
44697;BME280;57264;47.480;19.354;2023-03-13T12:16:47;99064.28;;;13.39;35.65
44697;BME280;57264;47.480;19.354;2023-03-13T12:19:25;99060.63;;;13.51;35.80
44697;BME280;57264;47.480;19.354;2023-03-13T12:21:56;99046.03;;;13.60;37.18
44697;BME280;57264;47.480;19.354;2023-03-13T12:24:32;99051.31;;;13.49;36.48
44697;BME280;57264;47.480;19.354;2023-03-13T12:27:20;99046.28;;;13.59;36.05
44697;BME280;57264;47.480;19.354;2023-03-13T12:32:50;99022.09;;;13.50;36.82
44697;BME280;57264;47.480;19.354;2023-03-13T12:35:25;99029.44;;;13.72;36.41
44697;BME280;57264;47.480;19.354;2023-03-13T12:43:50;99032.72;;;13.21;37.87
44697;BME280;57264;47.480;19.354;2023-03-13T12:46:38;99034.97;;;13.05;37.81
44697;BME280;57264;47.480;19.354;2023-03-13T12:49:37;99020.31;;;13.09;38.49
44697;BME280;57264;47.480;19.354;2023-03-13T12:52:18;99024.38;;;13.24;38.41
44697;BME280;57264;47.480;19.354;2023-03-13T12:55:52;99012.44;;;13.21;39.05
44697;BME280;57264;47.480;19.354;2023-03-13T13:00:49;99016.81;;;13.27;39.08
44697;BME280;57264;47.480;19.354;2023-03-13T13:03:23;99008.19;;;13.20;39.53
44697;BME280;57264;47.480;19.354;2023-03-13T13:06:13;98995.72;;;13.27;39.90
44697;BME280;57264;47.480;19.354;2023-03-13T13:09:01;98990.13;;;13.24;40.11
44697;BME280;57264;47.480;19.354;2023-03-13T13:16:40;98968.69;;;13.43;40.04
44697;BME280;57264;47.480;19.354;2023-03-13T13:25:01;98955.06;;;13.86;39.09
44697;BME280;57264;47.480;19.354;2023-03-13T13:27:47;98967.50;;;13.74;38.95
44697;BME280;57264;47.480;19.354;2023-03-13T13:32:54;98972.97;;;13.96;38.50
44697;BME280;57264;47.480;19.354;2023-03-13T13:35:33;98968.84;;;14.17;39.39
44697;BME280;57264;47.480;19.354;2023-03-13T13:43:33;98961.22;;;14.43;37.28
44697;BME280;57264;47.480;19.354;2023-03-13T13:46:15;98952.69;;;14.70;37.42
44697;BME280;57264;47.480;19.354;2023-03-13T13:48:43;98945.56;;;14.70;37.24
44697;BME280;57264;47.480;19.354;2023-03-13T13:56:47;98933.78;;;14.61;37.63
44697;BME280;57264;47.480;19.354;2023-03-13T14:01:48;98932.84;;;14.11;38.39
44697;BME280;57264;47.480;19.354;2023-03-13T14:07:45;98931.19;;;13.93;38.49
44697;BME280;57264;47.480;19.354;2023-03-13T14:13:00;98927.94;;;14.02;39.24
44697;BME280;57264;47.480;19.354;2023-03-13T14:15:31;98921.00;;;13.85;38.77
44697;BME280;57264;47.480;19.354;2023-03-13T14:18:01;98919.19;;;13.74;39.31
44697;BME280;57264;47.480;19.354;2023-03-13T14:20:35;98909.22;;;13.76;39.58
44697;BME280;57264;47.480;19.354;2023-03-13T14:23:07;98912.34;;;13.61;39.59
44697;BME280;57264;47.480;19.354;2023-03-13T14:25:47;98910.41;;;13.56;40.05